sensor_id;sensor_type;location;lat;lon;timestamp;pressure;altitude;pressure_sealevel;temperature;humidity
63019;BME280;49105;46.046;10.760;2023-02-12T00:02:22;97124.00;;;0.39;54.99
63019;BME280;49105;46.046;10.760;2023-02-12T00:04:47;97125.59;;;0.40;54.97
63019;BME280;49105;46.046;10.760;2023-02-12T00:07:12;97129.84;;;0.41;54.71
63019;BME280;49105;46.046;10.760;2023-02-12T00:09:38;97128.34;;;0.47;55.12
63019;BME280;49105;46.046;10.760;2023-02-12T00:12:03;97138.59;;;0.48;54.76
63019;BME280;49105;46.046;10.760;2023-02-12T00:14:29;97135.00;;;0.49;54.92
63019;BME280;49105;46.046;10.760;2023-02-12T00:16:54;97130.13;;;0.46;54.74
63019;BME280;49105;46.046;10.760;2023-02-12T00:19:20;97134.06;;;0.42;55.21
63019;BME280;49105;46.046;10.760;2023-02-12T00:21:45;97135.69;;;0.43;54.94
63019;BME280;49105;46.046;10.760;2023-02-12T00:24:10;97147.38;;;0.47;54.91
63019;BME280;49105;46.046;10.760;2023-02-12T00:26:36;97144.81;;;0.39;54.83
63019;BME280;49105;46.046;10.760;2023-02-12T00:29:01;97158.41;;;0.27;55.10
63019;BME280;49105;46.046;10.760;2023-02-12T00:31:29;97162.34;;;0.14;55.63
63019;BME280;49105;46.046;10.760;2023-02-12T00:33:55;97165.13;;;0.13;55.85
63019;BME280;49105;46.046;10.760;2023-02-12T00:36:25;97158.13;;;0.13;55.85
63019;BME280;49105;46.046;10.760;2023-02-12T00:38:52;97159.94;;;0.13;56.36
63019;BME280;49105;46.046;10.760;2023-02-12T00:41:18;97159.56;;;0.16;56.22
63019;BME280;49105;46.046;10.760;2023-02-12T00:43:44;97158.72;;;0.23;55.74
63019;BME280;49105;46.046;10.760;2023-02-12T00:46:10;97160.16;;;0.34;55.83
63019;BME280;49105;46.046;10.760;2023-02-12T00:48:36;97156.84;;;0.40;55.32
63019;BME280;49105;46.046;10.760;2023-02-12T00:51:02;97157.22;;;0.37;55.46
63019;BME280;49105;46.046;10.760;2023-02-12T00:53:28;97155.50;;;0.21;55.83
63019;BME280;49105;46.046;10.760;2023-02-12T00:55:53;97155.19;;;0.16;55.99
63019;BME280;49105;46.046;10.760;2023-02-12T00:58:18;97148.88;;;0.11;55.85
63019;BME280;49105;46.046;10.760;2023-02-12T01:00:44;97152.28;;;0.11;55.94
63019;BME280;49105;46.046;10.760;2023-02-12T01:03:09;97156.00;;;0.17;56.23
63019;BME280;49105;46.046;10.760;2023-02-12T01:05:35;97150.91;;;0.23;55.68
63019;BME280;49105;46.046;10.760;2023-02-12T01:08:01;97158.41;;;0.27;55.52
63019;BME280;49105;46.046;10.760;2023-02-12T01:10:27;97143.41;;;0.29;55.52
63019;BME280;49105;46.046;10.760;2023-02-12T01:12:52;97139.38;;;0.26;55.54
63019;BME280;49105;46.046;10.760;2023-02-12T01:15:18;97148.50;;;0.22;55.52
63019;BME280;49105;46.046;10.760;2023-02-12T01:17:44;97156.31;;;0.22;55.83
63019;BME280;49105;46.046;10.760;2023-02-12T01:20:15;97147.84;;;0.20;55.87
63019;BME280;49105;46.046;10.760;2023-02-12T01:22:44;97155.31;;;0.23;55.75
63019;BME280;49105;46.046;10.760;2023-02-12T01:25:10;97145.91;;;0.22;55.94
63019;BME280;49105;46.046;10.760;2023-02-12T01:27:36;97142.00;;;0.18;55.72
63019;BME280;49105;46.046;10.760;2023-02-12T01:30:02;97145.94;;;0.14;55.93
63019;BME280;49105;46.046;10.760;2023-02-12T01:32:28;97139.25;;;0.11;56.30
63019;BME280;49105;46.046;10.760;2023-02-12T01:34:53;97146.25;;;0.11;56.26
63019;BME280;49105;46.046;10.760;2023-02-12T01:37:18;97139.44;;;0.10;55.85
63019;BME280;49105;46.046;10.760;2023-02-12T01:39:44;97146.47;;;0.01;56.48
63019;BME280;49105;46.046;10.760;2023-02-12T01:42:12;97148.94;;;-0.06;56.42
63019;BME280;49105;46.046;10.760;2023-02-12T01:44:42;97151.22;;;-0.11;56.70
63019;BME280;49105;46.046;10.760;2023-02-12T01:47:16;97151.53;;;-0.06;56.75
63019;BME280;49105;46.046;10.760;2023-02-12T01:49:45;97151.84;;;-0.09;56.95
63019;BME280;49105;46.046;10.760;2023-02-12T01:54:39;97145.53;;;-0.06;56.77
63019;BME280;49105;46.046;10.760;2023-02-12T01:57:07;97143.56;;;-0.04;57.02
63019;BME280;49105;46.046;10.760;2023-02-12T01:59:35;97149.59;;;-0.04;56.89
63019;BME280;49105;46.046;10.760;2023-02-12T02:02:02;97146.00;;;-0.03;56.67
63019;BME280;49105;46.046;10.760;2023-02-12T02:04:40;97140.44;;;0.09;56.47
63019;BME280;49105;46.046;10.760;2023-02-12T02:07:09;97143.81;;;0.17;56.53
63019;BME280;49105;46.046;10.760;2023-02-12T02:09:37;97142.34;;;0.15;56.20
63019;BME280;49105;46.046;10.760;2023-02-12T02:12:04;97142.59;;;-0.03;56.95
63019;BME280;49105;46.046;10.760;2023-02-12T02:14:49;97142.13;;;-0.15;57.05
63019;BME280;49105;46.046;10.760;2023-02-12T02:20:35;97131.44;;;-0.20;57.58
63019;BME280;49105;46.046;10.760;2023-02-12T02:30:59;97126.47;;;0.02;56.82
63019;BME280;49105;46.046;10.760;2023-02-12T02:36:39;97117.34;;;0.06;57.17
63019;BME280;49105;46.046;10.760;2023-02-12T02:39:12;97128.38;;;0.08;56.98
63019;BME280;49105;46.046;10.760;2023-02-12T02:41:49;97127.75;;;0.06;57.13
63019;BME280;49105;46.046;10.760;2023-02-12T02:44:25;97123.88;;;-0.07;57.39
63019;BME280;49105;46.046;10.760;2023-02-12T02:46:52;97122.59;;;-0.11;57.08
63019;BME280;49105;46.046;10.760;2023-02-12T02:49:23;97108.09;;;-0.05;57.82
63019;BME280;49105;46.046;10.760;2023-02-12T02:51:54;97107.25;;;0.03;57.24
63019;BME280;49105;46.046;10.760;2023-02-12T02:54:37;97123.97;;;0.08;57.44
63019;BME280;49105;46.046;10.760;2023-02-12T02:57:33;97117.00;;;0.09;57.18
63019;BME280;49105;46.046;10.760;2023-02-12T03:00:21;97115.81;;;0.11;57.13
63019;BME280;49105;46.046;10.760;2023-02-12T03:02:56;97116.50;;;0.13;56.87
63019;BME280;49105;46.046;10.760;2023-02-12T03:05:28;97114.34;;;0.17;57.02
63019;BME280;49105;46.046;10.760;2023-02-12T03:08:03;97115.97;;;0.18;57.15
63019;BME280;49105;46.046;10.760;2023-02-12T03:10:37;97122.53;;;0.06;57.12
63019;BME280;49105;46.046;10.760;2023-02-12T03:15:57;97110.53;;;-0.04;57.61
63019;BME280;49105;46.046;10.760;2023-02-12T03:18:23;97113.78;;;-0.02;57.24
63019;BME280;49105;46.046;10.760;2023-02-12T03:20:53;97124.22;;;-0.10;57.09
63019;BME280;49105;46.046;10.760;2023-02-12T03:23:43;97109.41;;;-0.09;57.12
63019;BME280;49105;46.046;10.760;2023-02-12T03:26:19;97120.78;;;-0.02;57.04
63019;BME280;49105;46.046;10.760;2023-02-12T03:28:46;97121.59;;;-0.02;57.17
63019;BME280;49105;46.046;10.760;2023-02-12T03:31:37;97126.16;;;-0.04;57.30
63019;BME280;49105;46.046;10.760;2023-02-12T03:34:15;97116.38;;;-0.02;57.00
63019;BME280;49105;46.046;10.760;2023-02-12T03:37:15;97113.47;;;-0.07;57.21
63019;BME280;49105;46.046;10.760;2023-02-12T03:40:01;97112.19;;;-0.11;56.87
63019;BME280;49105;46.046;10.760;2023-02-12T03:42:43;97111.13;;;-0.24;57.17
63019;BME280;49105;46.046;10.760;2023-02-12T03:45:25;97112.25;;;-0.27;57.42
63019;BME280;49105;46.046;10.760;2023-02-12T03:50:38;97119.41;;;-0.29;57.52
63019;BME280;49105;46.046;10.760;2023-02-12T03:53:05;97123.31;;;-0.33;57.80
63019;BME280;49105;46.046;10.760;2023-02-12T03:55:33;97113.59;;;-0.39;57.86
63019;BME280;49105;46.046;10.760;2023-02-12T03:58:02;97111.16;;;-0.41;58.13
63019;BME280;49105;46.046;10.760;2023-02-12T04:00:27;97120.88;;;-0.35;57.71
63019;BME280;49105;46.046;10.760;2023-02-12T04:02:53;97115.06;;;-0.37;58.00
63019;BME280;49105;46.046;10.760;2023-02-12T04:05:23;97118.63;;;-0.38;57.75
63019;BME280;49105;46.046;10.760;2023-02-12T04:07:49;97115.06;;;-0.37;58.02
63019;BME280;49105;46.046;10.760;2023-02-12T04:10:16;97111.00;;;-0.39;57.72
63019;BME280;49105;46.046;10.760;2023-02-12T04:18:24;97119.44;;;-0.45;57.84
63019;BME280;49105;46.046;10.760;2023-02-12T04:31:45;97116.44;;;-0.73;58.43
63019;BME280;49105;46.046;10.760;2023-02-12T04:34:14;97114.66;;;-0.73;58.52
63019;BME280;49105;46.046;10.760;2023-02-12T04:37:06;97112.38;;;-0.76;58.83
63019;BME280;49105;46.046;10.760;2023-02-12T04:39:36;97114.34;;;-0.78;58.69
63019;BME280;49105;46.046;10.760;2023-02-12T04:42:03;97107.97;;;-0.76;58.83
63019;BME280;49105;46.046;10.760;2023-02-12T04:44:31;97108.13;;;-0.69;58.81
63019;BME280;49105;46.046;10.760;2023-02-12T04:46:57;97107.63;;;-0.64;58.86
63019;BME280;49105;46.046;10.760;2023-02-12T04:49:23;97103.22;;;-0.56;58.38
63019;BME280;49105;46.046;10.760;2023-02-12T04:51:50;97097.84;;;-0.54;58.21
63019;BME280;49105;46.046;10.760;2023-02-12T04:54:18;97100.81;;;-0.57;58.70
63019;BME280;49105;46.046;10.760;2023-02-12T04:56:44;97092.16;;;-0.58;58.73
63019;BME280;49105;46.046;10.760;2023-02-12T04:59:10;97095.13;;;-0.61;58.93
63019;BME280;49105;46.046;10.760;2023-02-12T05:01:37;97092.53;;;-0.61;58.88
63019;BME280;49105;46.046;10.760;2023-02-12T05:04:04;97086.97;;;-0.58;58.79
63019;BME280;49105;46.046;10.760;2023-02-12T05:06:30;97082.09;;;-0.53;58.53
63019;BME280;49105;46.046;10.760;2023-02-12T05:08:58;97086.97;;;-0.58;58.54
63019;BME280;49105;46.046;10.760;2023-02-12T05:11:23;97081.97;;;-0.67;58.68
63019;BME280;49105;46.046;10.760;2023-02-12T05:13:50;97101.16;;;-0.77;59.11
63019;BME280;49105;46.046;10.760;2023-02-12T05:16:16;97102.28;;;-0.79;59.18
63019;BME280;49105;46.046;10.760;2023-02-12T05:18:42;97112.69;;;-0.79;59.17
63019;BME280;49105;46.046;10.760;2023-02-12T05:21:07;97108.78;;;-0.75;58.91
63019;BME280;49105;46.046;10.760;2023-02-12T05:23:35;97116.91;;;-0.70;58.51
63019;BME280;49105;46.046;10.760;2023-02-12T05:26:03;97123.75;;;-0.77;59.19
63019;BME280;49105;46.046;10.760;2023-02-12T05:28:29;97124.75;;;-0.94;59.48
63019;BME280;49105;46.046;10.760;2023-02-12T05:30:59;97132.88;;;-1.06;59.46
63019;BME280;49105;46.046;10.760;2023-02-12T05:33:24;97123.09;;;-1.04;59.59
63019;BME280;49105;46.046;10.760;2023-02-12T05:35:49;97121.81;;;-1.00;59.81
63019;BME280;49105;46.046;10.760;2023-02-12T05:38:15;97123.09;;;-0.95;59.75
63019;BME280;49105;46.046;10.760;2023-02-12T05:40:40;97136.25;;;-0.89;59.49
63019;BME280;49105;46.046;10.760;2023-02-12T05:43:07;97126.19;;;-0.84;59.24
63019;BME280;49105;46.046;10.760;2023-02-12T05:45:32;97133.34;;;-0.78;58.98
63019;BME280;49105;46.046;10.760;2023-02-12T05:47:58;97137.06;;;-0.88;59.37
63019;BME280;49105;46.046;10.760;2023-02-12T05:50:24;97140.78;;;-0.91;59.48
63019;BME280;49105;46.046;10.760;2023-02-12T05:52:49;97143.88;;;-0.95;59.52
63019;BME280;49105;46.046;10.760;2023-02-12T05:55:15;97141.94;;;-0.93;59.31
63019;BME280;49105;46.046;10.760;2023-02-12T05:57:40;97142.75;;;-0.85;59.21
63019;BME280;49105;46.046;10.760;2023-02-12T06:00:09;97146.66;;;-0.81;59.55
63019;BME280;49105;46.046;10.760;2023-02-12T06:02:35;97152.66;;;-0.80;59.32
63019;BME280;49105;46.046;10.760;2023-02-12T06:05:00;97155.09;;;-0.79;59.39
63019;BME280;49105;46.046;10.760;2023-02-12T06:07:26;97160.16;;;-0.77;59.43
63019;BME280;49105;46.046;10.760;2023-02-12T06:09:52;97162.75;;;-0.77;59.53
63019;BME280;49105;46.046;10.760;2023-02-12T06:12:19;97153.97;;;-0.76;59.45
63019;BME280;49105;46.046;10.760;2023-02-12T06:14:45;97162.41;;;-0.74;59.27
63019;BME280;49105;46.046;10.760;2023-02-12T06:17:10;97156.75;;;-0.94;59.88
63019;BME280;49105;46.046;10.760;2023-02-12T06:19:36;97158.03;;;-1.06;60.27
63019;BME280;49105;46.046;10.760;2023-02-12T06:22:01;97161.44;;;-1.14;60.18
63019;BME280;49105;46.046;10.760;2023-02-12T06:24:26;97164.84;;;-1.13;60.10
63019;BME280;49105;46.046;10.760;2023-02-12T06:26:52;97169.72;;;-1.10;60.56
63019;BME280;49105;46.046;10.760;2023-02-12T06:29:19;97170.53;;;-1.02;59.86
63019;BME280;49105;46.046;10.760;2023-02-12T06:31:44;97162.56;;;-1.00;59.82
63019;BME280;49105;46.046;10.760;2023-02-12T06:34:11;97160.28;;;-0.95;60.20
63019;BME280;49105;46.046;10.760;2023-02-12T06:36:40;97171.34;;;-0.85;60.37
63019;BME280;49105;46.046;10.760;2023-02-12T06:39:06;97161.13;;;-0.78;60.26
63019;BME280;49105;46.046;10.760;2023-02-12T06:41:32;97162.41;;;-0.74;60.10
63019;BME280;49105;46.046;10.760;2023-02-12T06:43:58;97158.53;;;-0.70;60.16
63019;BME280;49105;46.046;10.760;2023-02-12T06:46:23;97158.53;;;-0.70;59.91
63019;BME280;49105;46.046;10.760;2023-02-12T06:48:59;97165.16;;;-0.67;59.70
63019;BME280;49105;46.046;10.760;2023-02-12T06:51:26;97163.06;;;-0.72;59.77
63019;BME280;49105;46.046;10.760;2023-02-12T06:53:54;97174.13;;;-0.78;60.23
63019;BME280;49105;46.046;10.760;2023-02-12T06:56:21;97180.75;;;-0.84;59.94
63019;BME280;49105;46.046;10.760;2023-02-12T06:58:54;97180.28;;;-0.79;60.33
63019;BME280;49105;46.046;10.760;2023-02-12T07:01:23;97179.97;;;-0.76;60.08
63019;BME280;49105;46.046;10.760;2023-02-12T07:03:55;97176.38;;;-0.75;59.99
63019;BME280;49105;46.046;10.760;2023-02-12T07:06:21;97183.84;;;-0.72;60.33
63019;BME280;49105;46.046;10.760;2023-02-12T07:08:47;97175.88;;;-0.70;60.25
63019;BME280;49105;46.046;10.760;2023-02-12T07:11:13;97179.78;;;-0.66;60.14
63019;BME280;49105;46.046;10.760;2023-02-12T07:13:42;97183.53;;;-0.69;60.11
63019;BME280;49105;46.046;10.760;2023-02-12T07:16:13;97185.47;;;-0.79;60.22
63019;BME280;49105;46.046;10.760;2023-02-12T07:18:39;97186.47;;;-0.80;60.63
63019;BME280;49105;46.046;10.760;2023-02-12T07:21:06;97204.34;;;-0.77;60.62
63019;BME280;49105;46.046;10.760;2023-02-12T07:23:32;97207.75;;;-0.77;60.50
63019;BME280;49105;46.046;10.760;2023-02-12T07:26:10;97209.22;;;-0.74;60.33
63019;BME280;49105;46.046;10.760;2023-02-12T07:28:36;97207.56;;;-0.67;60.71
63019;BME280;49105;46.046;10.760;2023-02-12T07:31:17;97199.13;;;-0.61;60.54
63019;BME280;49105;46.046;10.760;2023-02-12T07:33:44;97202.03;;;-0.56;60.43
63019;BME280;49105;46.046;10.760;2023-02-12T07:36:15;97206.94;;;-0.53;60.30
63019;BME280;49105;46.046;10.760;2023-02-12T07:38:41;97208.22;;;-0.48;60.50
63019;BME280;49105;46.046;10.760;2023-02-12T07:41:14;97212.25;;;-0.46;60.14
63019;BME280;49105;46.046;10.760;2023-02-12T07:43:41;97217.97;;;-0.51;60.00
63019;BME280;49105;46.046;10.760;2023-02-12T07:46:12;97214.06;;;-0.46;60.41
63019;BME280;49105;46.046;10.760;2023-02-12T07:48:37;97204.31;;;-0.36;60.42
63019;BME280;49105;46.046;10.760;2023-02-12T07:51:05;97206.56;;;-0.33;60.11
63019;BME280;49105;46.046;10.760;2023-02-12T07:53:31;97209.34;;;-0.51;60.28
63019;BME280;49105;46.046;10.760;2023-02-12T07:56:07;97198.16;;;-0.68;61.08
63019;BME280;49105;46.046;10.760;2023-02-12T07:58:32;97196.84;;;-0.72;60.72
63019;BME280;49105;46.046;10.760;2023-02-12T08:00:57;97194.25;;;-0.72;60.65
63019;BME280;49105;46.046;10.760;2023-02-12T08:03:23;97195.56;;;-0.68;60.81
63019;BME280;49105;46.046;10.760;2023-02-12T08:05:48;97186.63;;;-0.65;60.70
63019;BME280;49105;46.046;10.760;2023-02-12T08:08:14;97196.22;;;-0.66;60.77
63019;BME280;49105;46.046;10.760;2023-02-12T08:10:39;97204.47;;;-0.62;60.92
63019;BME280;49105;46.046;10.760;2023-02-12T08:13:04;97207.25;;;-0.72;60.79
63019;BME280;49105;46.046;10.760;2023-02-12T08:15:30;97207.25;;;-0.72;61.24
63019;BME280;49105;46.046;10.760;2023-02-12T08:17:55;97199.94;;;-0.68;60.92
63019;BME280;49105;46.046;10.760;2023-02-12T08:20:20;97208.06;;;-0.63;60.85
63019;BME280;49105;46.046;10.760;2023-02-12T08:22:46;97217.97;;;-0.59;60.60
63019;BME280;49105;46.046;10.760;2023-02-12T08:25:11;97209.69;;;-0.54;60.88
63019;BME280;49105;46.046;10.760;2023-02-12T08:27:40;97213.75;;;-0.52;61.15
63019;BME280;49105;46.046;10.760;2023-02-12T08:30:06;97215.22;;;-0.49;61.11
63019;BME280;49105;46.046;10.760;2023-02-12T08:32:31;97211.78;;;-0.41;60.70
63019;BME280;49105;46.046;10.760;2023-02-12T08:34:57;97212.25;;;-0.38;60.79
63019;BME280;49105;46.046;10.760;2023-02-12T08:37:23;97212.75;;;-0.34;60.58
63019;BME280;49105;46.046;10.760;2023-02-12T08:39:48;97218.75;;;-0.26;61.09
63019;BME280;49105;46.046;10.760;2023-02-12T08:42:14;97211.88;;;-0.10;60.42
63019;BME280;49105;46.046;10.760;2023-02-12T08:44:41;97214.63;;;0.05;60.25
63019;BME280;49105;46.046;10.760;2023-02-12T08:47:07;97204.81;;;0.15;60.42
63019;BME280;49105;46.046;10.760;2023-02-12T08:49:34;97215.47;;;-0.03;60.26
63019;BME280;49105;46.046;10.760;2023-02-12T08:52:00;97211.75;;;-0.25;61.05
63019;BME280;49105;46.046;10.760;2023-02-12T08:54:28;97203.94;;;-0.25;61.08
63019;BME280;49105;46.046;10.760;2023-02-12T08:56:59;97201.47;;;-0.10;61.13
63019;BME280;49105;46.046;10.760;2023-02-12T08:59:25;97208.25;;;0.07;60.68
63019;BME280;49105;46.046;10.760;2023-02-12T09:01:51;97214.59;;;0.21;60.89
63019;BME280;49105;46.046;10.760;2023-02-12T09:04:21;97211.72;;;0.39;61.06
63019;BME280;49105;46.046;10.760;2023-02-12T09:06:47;97209.69;;;0.57;60.50
63019;BME280;49105;46.046;10.760;2023-02-12T09:09:13;97208.91;;;0.80;60.21
63019;BME280;49105;46.046;10.760;2023-02-12T09:11:39;97210.78;;;0.94;60.33
63019;BME280;49105;46.046;10.760;2023-02-12T09:14:09;97208.13;;;1.02;60.84
63019;BME280;49105;46.046;10.760;2023-02-12T09:16:35;97202.44;;;1.21;60.43
63019;BME280;49105;46.046;10.760;2023-02-12T09:19:02;97196.75;;;1.56;60.71
63019;BME280;49105;46.046;10.760;2023-02-12T09:21:28;97191.69;;;1.92;60.25
63019;BME280;49105;46.046;10.760;2023-02-12T09:23:53;97186.91;;;2.25;59.70
63019;BME280;49105;46.046;10.760;2023-02-12T09:26:22;97190.72;;;2.59;59.49
63019;BME280;49105;46.046;10.760;2023-02-12T09:28:48;97181.81;;;2.89;59.51
63019;BME280;49105;46.046;10.760;2023-02-12T09:31:22;97192.41;;;3.03;59.00
63019;BME280;49105;46.046;10.760;2023-02-12T09:33:51;97179.38;;;2.88;58.71
63019;BME280;49105;46.046;10.760;2023-02-12T09:36:17;97173.56;;;2.71;59.01
63019;BME280;49105;46.046;10.760;2023-02-12T09:38:42;97188.75;;;2.61;58.91
63019;BME280;49105;46.046;10.760;2023-02-12T09:44:14;97179.56;;;2.65;58.67
63019;BME280;49105;46.046;10.760;2023-02-12T09:46:49;97176.28;;;2.78;58.61
63019;BME280;49105;46.046;10.760;2023-02-12T09:49:43;97188.09;;;2.95;58.48
63019;BME280;49105;46.046;10.760;2023-02-12T09:52:19;97177.59;;;3.10;58.09
63019;BME280;49105;46.046;10.760;2023-02-12T09:54:47;97180.13;;;3.24;58.03
63019;BME280;49105;46.046;10.760;2023-02-12T09:57:39;97175.84;;;3.38;57.85
63019;BME280;49105;46.046;10.760;2023-02-12T10:00:15;97180.53;;;3.49;57.87
63019;BME280;49105;46.046;10.760;2023-02-12T10:02:42;97169.91;;;3.58;57.41
63019;BME280;49105;46.046;10.760;2023-02-12T10:05:22;97175.03;;;3.66;57.58
63019;BME280;49105;46.046;10.760;2023-02-12T10:08:06;97168.81;;;3.73;57.63
63019;BME280;49105;46.046;10.760;2023-02-12T10:10:51;97171.72;;;3.85;57.23
63019;BME280;49105;46.046;10.760;2023-02-12T10:22:03;97154.72;;;4.51;56.81
63019;BME280;49105;46.046;10.760;2023-02-12T10:27:16;97145.09;;;4.71;56.39
63019;BME280;49105;46.046;10.760;2023-02-12T10:29:44;97140.69;;;4.78;56.49
63019;BME280;49105;46.046;10.760;2023-02-12T10:32:28;97141.31;;;4.87;56.82
63019;BME280;49105;46.046;10.760;2023-02-12T10:34:56;97127.41;;;5.00;56.10
63019;BME280;49105;46.046;10.760;2023-02-12T10:42:43;97116.09;;;5.32;56.19
63019;BME280;49105;46.046;10.760;2023-02-12T10:45:14;97108.03;;;5.40;55.74
63019;BME280;49105;46.046;10.760;2023-02-12T10:47:40;97098.72;;;5.51;55.59
63019;BME280;49105;46.046;10.760;2023-02-12T10:50:20;97100.31;;;5.59;55.87
63019;BME280;49105;46.046;10.760;2023-02-12T10:53:00;97081.94;;;5.72;55.31
63019;BME280;49105;46.046;10.760;2023-02-12T10:55:28;97079.47;;;5.77;55.17
63019;BME280;49105;46.046;10.760;2023-02-12T10:57:57;97083.31;;;5.81;55.36
63019;BME280;49105;46.046;10.760;2023-02-12T11:00:31;97075.22;;;5.83;55.54
63019;BME280;49105;46.046;10.760;2023-02-12T11:03:28;97065.69;;;5.88;55.54
63019;BME280;49105;46.046;10.760;2023-02-12T11:05:53;97054.97;;;5.96;55.20
63019;BME280;49105;46.046;10.760;2023-02-12T11:08:32;97055.38;;;6.00;55.31
63019;BME280;49105;46.046;10.760;2023-02-12T11:11:04;97046.63;;;6.13;55.25
63019;BME280;49105;46.046;10.760;2023-02-12T11:13:30;97043.72;;;6.28;54.68
63019;BME280;49105;46.046;10.760;2023-02-12T11:15:56;97037.81;;;6.39;54.56
63019;BME280;49105;46.046;10.760;2023-02-12T11:18:26;97042.44;;;6.43;54.62
63019;BME280;49105;46.046;10.760;2023-02-12T11:28:59;97028.00;;;6.84;53.69
63019;BME280;49105;46.046;10.760;2023-02-12T11:31:32;97022.63;;;6.97;53.37
63019;BME280;49105;46.046;10.760;2023-02-12T11:36:40;97017.34;;;7.22;52.95
63019;BME280;49105;46.046;10.760;2023-02-12T11:39:28;97001.47;;;7.29;52.87
63019;BME280;49105;46.046;10.760;2023-02-12T11:44:41;96994.75;;;7.52;52.51
63019;BME280;49105;46.046;10.760;2023-02-12T11:47:09;96983.72;;;7.61;52.25
63019;BME280;49105;46.046;10.760;2023-02-12T11:49:47;96986.25;;;7.68;52.07
63019;BME280;49105;46.046;10.760;2023-02-12T11:52:20;96981.66;;;7.82;51.79
63019;BME280;49105;46.046;10.760;2023-02-12T11:54:48;96975.25;;;7.89;51.67
63019;BME280;49105;46.046;10.760;2023-02-12T11:57:51;96979.22;;;7.99;51.84
63019;BME280;49105;46.046;10.760;2023-02-12T12:00:22;96974.63;;;8.06;51.52
63019;BME280;49105;46.046;10.760;2023-02-12T12:03:03;96970.09;;;8.13;51.41
63019;BME280;49105;46.046;10.760;2023-02-12T12:05:37;96957.03;;;8.18;50.97
63019;BME280;49105;46.046;10.760;2023-02-12T12:08:15;96949.16;;;8.30;51.11
63019;BME280;49105;46.046;10.760;2023-02-12T12:10:49;96944.63;;;8.37;51.01
63019;BME280;49105;46.046;10.760;2023-02-12T12:13:18;96942.34;;;8.40;50.50
63019;BME280;49105;46.046;10.760;2023-02-12T12:15:51;96933.06;;;8.50;50.58
63019;BME280;49105;46.046;10.760;2023-02-12T12:24:25;96928.50;;;8.80;49.61
63019;BME280;49105;46.046;10.760;2023-02-12T12:27:01;96927.59;;;8.86;49.50
63019;BME280;49105;46.046;10.760;2023-02-12T12:32:04;96918.88;;;8.98;49.13
63019;BME280;49105;46.046;10.760;2023-02-12T12:34:31;96915.88;;;9.06;49.22
63019;BME280;49105;46.046;10.760;2023-02-12T12:39:40;96903.41;;;9.30;48.58
63019;BME280;49105;46.046;10.760;2023-02-12T12:46:14;96906.25;;;9.52;48.00
63019;BME280;49105;46.046;10.760;2023-02-12T12:48:46;96896.03;;;9.55;47.45
63019;BME280;49105;46.046;10.760;2023-02-12T13:04:30;96890.13;;;10.39;46.45
63019;BME280;49105;46.046;10.760;2023-02-12T13:21:19;96870.22;;;11.09;42.17
63019;BME280;49105;46.046;10.760;2023-02-12T13:23:59;96876.91;;;11.33;40.35
63019;BME280;49105;46.046;10.760;2023-02-12T13:26:38;96872.94;;;11.58;39.60
63019;BME280;49105;46.046;10.760;2023-02-12T13:29:18;96870.84;;;11.60;38.84
63019;BME280;49105;46.046;10.760;2023-02-12T13:31:52;96870.34;;;11.63;39.32
63019;BME280;49105;46.046;10.760;2023-02-12T13:34:19;96869.47;;;11.79;38.91
63019;BME280;49105;46.046;10.760;2023-02-12T13:36:48;96874.28;;;11.82;39.02
63019;BME280;49105;46.046;10.760;2023-02-12T13:39:17;96869.47;;;11.79;39.07
63019;BME280;49105;46.046;10.760;2023-02-12T13:41:55;96874.16;;;11.72;39.07
63019;BME280;49105;46.046;10.760;2023-02-12T13:44:26;96880.56;;;11.76;38.13
63019;BME280;49105;46.046;10.760;2023-02-12T13:47:14;96876.38;;;11.80;37.94
63019;BME280;49105;46.046;10.760;2023-02-12T13:49:53;96878.91;;;11.92;38.20
63019;BME280;49105;46.046;10.760;2023-02-12T13:52:48;96878.00;;;12.08;38.05
63019;BME280;49105;46.046;10.760;2023-02-12T13:55:22;96887.81;;;12.08;37.99
63019;BME280;49105;46.046;10.760;2023-02-12T14:01:34;96892.44;;;11.90;38.78
63019;BME280;49105;46.046;10.760;2023-02-12T14:09:21;96910.34;;;12.05;38.94
63019;BME280;49105;46.046;10.760;2023-02-12T14:11:52;96904.63;;;11.91;39.03
63019;BME280;49105;46.046;10.760;2023-02-12T14:16:52;96907.72;;;11.83;39.07
63019;BME280;49105;46.046;10.760;2023-02-12T14:19:36;96899.78;;;11.83;39.15
63019;BME280;49105;46.046;10.760;2023-02-12T14:22:09;96907.47;;;11.85;38.70
63019;BME280;49105;46.046;10.760;2023-02-12T14:27:06;96906.94;;;11.83;38.40
63019;BME280;49105;46.046;10.760;2023-02-12T14:37:54;96919.09;;;11.57;38.93
63019;BME280;49105;46.046;10.760;2023-02-12T14:43:03;96926.28;;;11.61;37.62
63019;BME280;49105;46.046;10.760;2023-02-12T14:45:47;96932.34;;;11.57;37.53
63019;BME280;49105;46.046;10.760;2023-02-12T14:51:04;96931.13;;;11.64;37.03
63019;BME280;49105;46.046;10.760;2023-02-12T14:53:36;96932.09;;;11.58;37.35
63019;BME280;49105;46.046;10.760;2023-02-12T14:56:04;96940.16;;;11.47;37.69
63019;BME280;49105;46.046;10.760;2023-02-12T14:58:34;96941.63;;;11.37;38.15
63019;BME280;49105;46.046;10.760;2023-02-12T15:01:01;96952.91;;;11.28;37.98
63019;BME280;49105;46.046;10.760;2023-02-12T15:03:49;96972.03;;;11.13;38.37
63019;BME280;49105;46.046;10.760;2023-02-12T15:06:28;96973.00;;;11.07;38.03
63019;BME280;49105;46.046;10.760;2023-02-12T15:09:08;96975.03;;;11.00;38.33
63019;BME280;49105;46.046;10.760;2023-02-12T15:11:44;96971.56;;;10.99;37.96
63019;BME280;49105;46.046;10.760;2023-02-12T15:14:30;96974.63;;;10.91;38.13
63019;BME280;49105;46.046;10.760;2023-02-12T15:17:09;96972.13;;;10.84;38.43
63019;BME280;49105;46.046;10.760;2023-02-12T15:20:21;96984.97;;;10.76;38.69
63019;BME280;49105;46.046;10.760;2023-02-12T15:22:48;96986.97;;;10.68;38.65
63019;BME280;49105;46.046;10.760;2023-02-12T15:27:48;96994.75;;;10.58;38.60
63019;BME280;49105;46.046;10.760;2023-02-12T15:30:16;97005.56;;;10.57;38.58
63019;BME280;49105;46.046;10.760;2023-02-12T15:32:44;97012.63;;;10.51;38.45
63019;BME280;49105;46.046;10.760;2023-02-12T15:37:49;97011.56;;;10.52;38.82
63019;BME280;49105;46.046;10.760;2023-02-12T15:40:15;97016.66;;;10.54;38.54